createdAt,value
2022-09-02T00:01:46.061Z,96395.25
2022-09-02T00:04:16.920Z,96387.22
2022-09-02T00:06:47.271Z,96380.41
2022-09-02T00:09:21.024Z,96379.97
2022-09-02T00:11:51.192Z,96383.41
2022-09-02T00:14:23.224Z,96384.03
2022-09-02T00:16:53.283Z,96387.53
2022-09-02T00:19:24.136Z,96380.19
2022-09-02T00:21:53.951Z,96378.34
2022-09-02T00:24:24.085Z,96365.41
2022-09-02T00:26:56.449Z,96370.28
2022-09-02T00:29:26.845Z,96370.69
2022-09-02T00:31:57.005Z,96362.06
2022-09-02T00:34:26.054Z,96362.88
2022-09-02T00:36:54.609Z,96365.19
2022-09-02T00:39:23.059Z,96358.78
2022-09-02T00:41:52.587Z,96361.00
2022-09-02T00:44:22.855Z,96366.06
2022-09-02T00:46:51.381Z,96361.50
2022-09-02T00:49:25.187Z,96358.03
2022-09-02T00:51:58.499Z,96352.63
2022-09-02T00:54:30.968Z,96355.69
2022-09-02T00:57:02.017Z,96354.09
2022-09-02T00:59:42.363Z,96350.53
2022-09-02T01:02:11.791Z,96351.94
2022-09-02T01:04:43.154Z,96357.75
2022-09-02T01:07:11.607Z,96362.09
2022-09-02T01:09:41.022Z,96358.38
2022-09-02T01:12:12.729Z,96363.16
2022-09-02T01:14:41.433Z,96358.50
2022-09-02T01:17:10.127Z,96362.06
2022-09-02T01:19:45.957Z,96360.94
2022-09-02T01:22:20.576Z,96358.13
2022-09-02T01:24:49.503Z,96360.16
2022-09-02T01:27:19.828Z,96358.81
2022-09-02T01:29:53.187Z,96356.13
2022-09-02T01:32:22.341Z,96351.59
2022-09-02T01:34:51.060Z,96353.47
2022-09-02T01:37:21.696Z,96349.31
2022-09-02T01:39:52.313Z,96355.50
2022-09-02T01:42:21.562Z,96343.81
2022-09-02T01:44:50.084Z,96348.69
2022-09-02T01:47:22.628Z,96345.41
2022-09-02T01:49:52.373Z,96349.72
2022-09-02T01:52:24.824Z,96349.53
2022-09-02T01:54:53.455Z,96346.03
2022-09-02T01:57:24.613Z,96343.19
2022-09-02T01:59:53.143Z,96339.84
2022-09-02T02:02:22.367Z,96341.25
2022-09-02T02:04:51.796Z,96334.59
2022-09-02T02:07:23.836Z,96335.28
2022-09-02T02:09:52.879Z,96337.28
2022-09-02T02:12:21.719Z,96338.16
2022-09-02T02:14:50.273Z,96335.78
2022-09-02T02:17:18.691Z,96333.78
2022-09-02T02:19:47.200Z,96335.31
2022-09-02T02:22:15.784Z,96333.81
2022-09-02T02:24:48.144Z,96334.50
2022-09-02T02:27:16.596Z,96325.69
2022-09-02T02:29:45.108Z,96333.81
2022-09-02T02:32:13.587Z,96332.09
2022-09-02T02:34:42.674Z,96331.28
2022-09-02T02:37:12.330Z,96319.56
2022-09-02T02:39:41.739Z,96325.50
2022-09-02T02:42:12.107Z,96324.28
2022-09-02T02:44:40.875Z,96320.63
2022-09-02T02:47:10.039Z,96330.50
2022-09-02T02:49:39.312Z,96310.88
2022-09-02T02:52:08.535Z,96326.66
2022-09-02T02:54:37.117Z,96317.84
2022-09-02T02:57:06.791Z,96311.91
2022-09-02T02:59:37.440Z,96311.28
2022-09-02T03:02:07.647Z,96320.63
2022-09-02T03:04:36.297Z,96313.25
2022-09-02T03:07:07.298Z,96317.19
2022-09-02T03:09:36.139Z,96313.53
2022-09-02T03:12:05.097Z,96314.53
2022-09-02T03:14:33.528Z,96314.19
2022-09-02T03:17:04.781Z,96321.59
2022-09-02T03:19:33.247Z,96313.19
2022-09-02T03:22:01.831Z,96303.84
2022-09-02T03:24:31.079Z,96314.84
2022-09-02T03:26:59.623Z,96309.56
2022-09-02T03:29:28.188Z,96309.56
2022-09-02T03:31:57.223Z,96309.22
2022-09-02T03:34:28.049Z,96306.75
2022-09-02T03:36:57.616Z,96306.38
2022-09-02T03:39:26.153Z,96304.84
2022-09-02T03:41:54.677Z,96308.16
2022-09-02T03:44:23.097Z,96294.72
2022-09-02T03:46:51.594Z,96296.81
2022-09-02T03:49:20.240Z,96296.44
2022-09-02T03:51:52.727Z,96303.03
2022-09-02T03:54:21.512Z,96294.22
2022-09-02T03:56:50.115Z,96301.66
2022-09-02T03:59:19.172Z,96300.19
2022-09-02T04:01:47.776Z,96298.47
2022-09-02T04:04:19.742Z,96302.28
2022-09-02T04:06:52.431Z,96290.22
2022-09-02T04:09:20.887Z,96301.00
2022-09-02T04:11:49.356Z,96294.69
2022-09-02T04:14:17.935Z,96301.09
2022-09-02T04:16:46.457Z,96297.91
2022-09-02T04:19:14.961Z,96296.19
2022-09-02T04:21:44.023Z,96300.84
2022-09-02T04:24:13.575Z,96305.69
2022-09-02T04:26:44.988Z,96306.22
2022-09-02T04:29:14.212Z,96303.47
2022-09-02T04:31:48.724Z,96295.41
2022-09-02T04:34:17.319Z,96300.63
2022-09-02T04:36:45.798Z,96293.56
2022-09-02T04:39:14.340Z,96296.03
2022-09-02T04:41:44.128Z,96295.88
2022-09-02T04:44:12.571Z,96298.44
2022-09-02T04:46:41.403Z,96300.66
2022-09-02T04:49:09.948Z,96301.47
2022-09-02T04:51:38.488Z,96298.44
2022-09-02T04:54:07.953Z,96299.25
2022-09-02T04:56:38.078Z,96300.72
2022-09-02T04:59:08.195Z,96294.13
2022-09-02T05:01:37.432Z,96288.72
2022-09-02T05:04:09.694Z,96296.88
2022-09-02T05:06:44.049Z,96299.16
2022-09-02T05:09:13.384Z,96300.59
2022-09-02T05:11:41.892Z,96304.25
2022-09-02T05:14:13.044Z,96297.22
2022-09-02T05:16:42.851Z,96301.53
2022-09-02T05:19:12.615Z,96294.56
2022-09-02T05:21:43.427Z,96297.81
2022-09-02T05:24:12.079Z,96298.63
2022-09-02T05:26:42.473Z,96303.28
2022-09-02T05:29:13.504Z,96300.38
2022-09-02T05:31:42.547Z,96302.75
2022-09-02T05:34:11.679Z,96298.47
2022-09-02T05:36:40.224Z,96304.31
2022-09-02T05:39:09.341Z,96300.91
2022-09-02T05:41:38.312Z,96301.47
2022-09-02T05:44:07.989Z,96302.06
2022-09-02T05:46:37.892Z,96302.38
2022-09-02T05:49:07.519Z,96300.78
2022-09-02T05:51:42.179Z,96304.13
2022-09-02T05:54:16.172Z,96307.59
2022-09-02T05:56:46.839Z,96306.13
2022-09-02T05:59:16.443Z,96301.81
2022-09-02T06:01:46.504Z,96293.63
2022-09-02T06:04:15.191Z,96301.19
2022-09-02T06:06:43.840Z,96299.88
2022-09-02T06:09:14.781Z,96295.69
2022-09-02T06:11:49.266Z,96294.09
2022-09-02T06:14:18.879Z,96298.75
2022-09-02T06:16:50.432Z,96296.97
2022-09-02T06:19:20.394Z,96296.81
2022-09-02T06:21:49.591Z,96296.69
2022-09-02T06:24:18.329Z,96293.44
2022-09-02T06:26:47.997Z,96290.41
2022-09-02T06:29:16.906Z,96298.00
2022-09-02T06:31:47.536Z,96304.00
2022-09-02T06:34:20.211Z,96304.28
2022-09-02T06:36:50.732Z,96303.97
2022-09-02T06:39:22.684Z,96304.22
2022-09-02T06:41:51.507Z,96300.75
2022-09-02T06:44:22.612Z,96293.84
2022-09-02T06:46:55.746Z,96297.81
2022-09-02T06:49:27.351Z,96292.72
2022-09-02T06:51:57.118Z,96299.13
2022-09-02T06:54:26.103Z,96291.13
2022-09-02T06:56:55.019Z,96295.59
2022-09-02T06:59:23.652Z,96292.94
2022-09-02T07:01:52.753Z,96294.97
2022-09-02T07:04:38.871Z,96300.38
2022-09-02T07:07:11.973Z,96298.53
2022-09-02T07:09:40.851Z,96299.00
2022-09-02T07:12:09.567Z,96302.50
2022-09-02T07:14:39.334Z,96301.72
2022-09-02T07:17:09.390Z,96293.72
2022-09-02T07:19:38.401Z,96298.69
2022-09-02T07:22:08.577Z,96289.03
2022-09-02T07:24:37.339Z,96294.81
2022-09-02T07:27:06.807Z,96295.00
2022-09-02T07:29:35.988Z,96299.28
2022-09-02T07:32:05.764Z,96301.34
2022-09-02T07:34:34.447Z,96298.47
2022-09-02T07:37:07.312Z,96308.94
2022-09-02T07:39:40.091Z,96295.19
2022-09-02T07:42:11.269Z,96288.19
2022-09-02T07:44:40.259Z,96289.25
2022-09-02T07:47:09.037Z,96288.22
2022-09-02T07:52:26.239Z,96292.91
2022-09-02T07:54:56.326Z,96284.53
2022-09-02T07:57:24.827Z,96284.13
2022-09-02T07:59:53.279Z,96290.50
2022-09-02T08:02:21.889Z,96289.31
2022-09-02T08:04:51.208Z,96288.94
2022-09-02T08:07:24.253Z,96286.28
2022-09-02T08:09:53.016Z,96283.59
2022-09-02T08:12:23.129Z,96281.13
2022-09-02T08:14:52.173Z,96277.63
2022-09-02T08:17:20.678Z,96288.72
2022-09-02T08:19:49.111Z,96286.06
2022-09-02T08:22:17.581Z,96286.66
2022-09-02T08:24:46.160Z,96282.13
2022-09-02T08:27:14.672Z,96289.50
2022-09-02T08:29:44.509Z,96276.13
2022-09-02T08:32:13.608Z,96282.72
2022-09-02T08:34:45.274Z,96284.16
2022-09-02T08:37:13.780Z,96289.88
2022-09-02T08:39:42.192Z,96281.00
2022-09-02T08:42:20.473Z,96270.13
2022-09-02T08:44:54.500Z,96268.44
2022-09-02T08:47:29.989Z,96276.03
2022-09-02T08:50:02.455Z,96273.56
2022-09-02T08:52:37.564Z,96273.31
2022-09-02T08:55:08.767Z,96268.34
2022-09-02T08:57:37.385Z,96269.34
2022-09-02T09:00:15.539Z,96261.22
2022-09-02T09:02:56.967Z,96262.00
2022-09-02T09:05:34.488Z,96254.91
2022-09-02T09:08:14.962Z,96258.31
2022-09-02T09:10:58.066Z,96258.31
2022-09-02T09:13:53.644Z,96253.69
2022-09-02T09:38:53.672Z,96230.53
2022-09-02T09:41:25.076Z,96231.28
2022-09-02T09:43:53.659Z,96232.59
2022-09-02T09:46:27.721Z,96228.09
2022-09-02T09:48:56.548Z,96225.69
2022-09-02T09:51:25.868Z,96227.59
2022-09-02T09:54:16.480Z,96220.06
2022-09-02T09:56:45.598Z,96228.22
2022-09-02T09:59:41.411Z,96222.81
2022-09-02T10:02:21.054Z,96215.22
2022-09-02T10:04:50.174Z,96221.91
2022-09-02T10:07:36.984Z,96212.47
2022-09-02T10:10:20.609Z,96218.22
2022-09-02T10:12:50.859Z,96218.31
2022-09-02T10:15:34.779Z,96216.91
2022-09-02T10:18:16.989Z,96218.22
2022-09-02T10:23:53.953Z,96211.44
2022-09-02T10:26:38.436Z,96216.00
2022-09-02T10:29:37.847Z,96201.94
2022-09-02T10:32:40.931Z,96195.97
2022-09-02T10:35:13.974Z,96200.66
2022-09-02T10:37:53.656Z,96198.63
2022-09-02T10:40:28.516Z,96203.88
2022-09-02T10:43:06.095Z,96191.13
2022-09-02T10:45:38.199Z,96193.44
2022-09-02T10:48:31.181Z,96185.44
2022-09-02T10:51:06.636Z,96180.75
2022-09-02T10:53:44.604Z,96183.31
2022-09-02T10:56:18.029Z,96176.97
2022-09-02T10:58:54.433Z,96180.34
2022-09-02T11:01:26.461Z,96176.44
2022-09-02T11:04:04.709Z,96171.72
2022-09-02T11:07:01.291Z,96175.31
2022-09-02T11:09:34.212Z,96169.28
2022-09-02T11:12:09.431Z,96166.44
2022-09-02T11:14:53.643Z,96165.53
2022-09-02T11:17:28.983Z,96164.88
2022-09-02T11:20:02.705Z,96167.06
2022-09-02T11:22:40.413Z,96159.47
2022-09-02T11:25:14.111Z,96165.03
2022-09-02T11:27:48.015Z,96166.75
2022-09-02T11:30:21.046Z,96170.97
2022-09-02T11:32:54.740Z,96163.50
2022-09-02T11:35:27.491Z,96157.13
2022-09-02T11:38:00.256Z,96150.72
2022-09-02T11:40:38.766Z,96155.09
2022-09-02T11:43:32.041Z,96159.84
2022-09-02T11:46:31.220Z,96154.88
2022-09-02T11:49:22.004Z,96150.19
2022-09-02T11:52:19.508Z,96140.59
2022-09-02T11:54:54.255Z,96146.63
2022-09-02T11:57:25.839Z,96147.19
2022-09-02T12:00:08.171Z,96140.75
2022-09-02T12:02:43.288Z,96139.44
2022-09-02T12:05:46.857Z,96143.50
2022-09-02T12:08:55.995Z,96142.47
2022-09-02T12:11:46.212Z,96140.16
2022-09-02T12:15:07.495Z,96130.75
2022-09-02T12:18:08.768Z,96135.94
2022-09-02T12:21:19.854Z,96137.44
2022-09-02T12:24:26.387Z,96137.75
2022-09-02T12:27:11.247Z,96138.84
2022-09-02T12:29:39.915Z,96137.44
2022-09-02T12:32:10.143Z,96134.19
2022-09-02T12:34:56.583Z,96130.44
2022-09-02T12:37:54.224Z,96129.88
2022-09-02T12:40:35.156Z,96132.13
2022-09-02T12:43:17.558Z,96127.84
2022-09-02T12:45:48.007Z,96114.34
2022-09-02T12:48:38.239Z,96123.84
2022-09-02T12:51:08.865Z,96117.13
2022-09-02T12:53:41.378Z,96117.72
2022-09-02T12:56:23.083Z,96117.47
2022-09-02T12:58:57.791Z,96120.47
2022-09-02T13:01:42.465Z,96116.72
2022-09-02T13:04:33.511Z,96108.03
2022-09-02T13:07:32.803Z,96100.25
2022-09-02T13:10:24.704Z,96101.09
2022-09-02T13:13:18.848Z,96111.38
2022-09-02T13:16:04.593Z,96105.44
2022-09-02T13:19:01.676Z,96107.59
2022-09-02T13:21:56.476Z,96097.63
2022-09-02T13:24:58.637Z,96094.69
2022-09-02T13:28:03.299Z,96094.41
2022-09-02T13:30:58.804Z,96093.06
2022-09-02T13:33:28.151Z,96094.13
2022-09-02T13:35:59.240Z,96094.41
2022-09-02T13:38:29.456Z,96092.00
2022-09-02T13:40:58.368Z,96097.97
2022-09-02T14:53:14.941Z,96049.06
2022-09-02T14:55:47.708Z,96049.91
2022-09-02T14:58:17.292Z,96042.03
2022-09-02T15:00:48.035Z,96037.41
2022-09-02T15:03:17.420Z,96040.41
2022-09-02T15:05:48.011Z,96040.41
2022-09-02T15:08:17.432Z,96043.94
2022-09-02T15:10:46.652Z,96039.06
2022-09-02T15:13:23.484Z,96046.09
2022-09-02T15:15:52.848Z,96045.00
2022-09-02T15:18:21.541Z,96045.03
2022-09-02T15:20:51.956Z,96042.84
2022-09-02T15:23:20.870Z,96034.72
2022-09-02T15:25:49.380Z,96033.09
2022-09-02T15:28:17.863Z,96027.16
2022-09-02T15:30:48.434Z,96033.06
2022-09-02T15:33:17.763Z,96033.59
2022-09-02T15:35:47.561Z,96035.22
2022-09-02T15:38:17.799Z,96030.88
2022-09-02T15:40:46.716Z,96041.44
2022-09-02T15:43:16.251Z,96046.03
2022-09-02T15:45:47.116Z,96041.16
2022-09-02T15:48:15.784Z,96040.06
2022-09-02T15:50:46.441Z,96036.81
2022-09-02T15:53:17.467Z,96036.25
2022-09-02T15:55:45.898Z,96036.78
2022-09-02T15:58:15.193Z,96039.47
2022-09-02T16:00:43.926Z,96037.84
2022-09-02T16:03:12.614Z,96032.41
2022-09-02T16:05:43.138Z,96030.78
2022-09-02T16:08:11.721Z,96024.22
2022-09-02T16:10:41.492Z,96022.84
2022-09-02T16:13:09.956Z,96026.09
2022-09-02T16:15:38.397Z,96023.91
2022-09-02T16:18:07.023Z,96021.19
2022-09-02T16:20:35.580Z,96012.25
2022-09-02T16:23:04.308Z,96005.75
2022-09-02T16:25:32.836Z,96006.53
2022-09-02T16:28:03.716Z,96013.25
2022-09-02T16:30:32.240Z,96017.81
2022-09-02T16:33:00.767Z,96004.81
2022-09-02T16:35:29.856Z,96008.34
2022-09-02T16:37:58.292Z,96015.09
2022-09-02T16:40:26.728Z,96014.25
2022-09-02T16:42:55.294Z,96017.16
2022-09-02T16:45:25.998Z,96010.34
2022-09-02T16:47:54.711Z,96018.66
2022-09-02T16:50:23.296Z,96011.34
2022-09-02T16:52:51.717Z,96008.34
2022-09-02T16:55:20.176Z,96010.75
2022-09-02T16:57:49.320Z,96007.72
2022-09-02T17:00:18.420Z,96010.66
2022-09-02T17:02:50.745Z,96006.84
2022-09-02T17:05:19.206Z,96004.09
2022-09-02T17:07:48.124Z,95998.94
2022-09-02T17:10:16.801Z,96006.97
2022-09-02T17:12:45.405Z,96006.91
2022-09-02T17:15:14.525Z,95990.94
2022-09-02T17:17:43.366Z,95993.88
2022-09-02T17:20:13.819Z,95995.38
2022-09-02T17:22:42.745Z,96003.09
2022-09-02T17:25:12.135Z,96000.88
2022-09-02T17:27:42.086Z,96002.16
2022-09-02T17:30:12.360Z,96008.00
2022-09-02T17:32:41.784Z,96002.78
2022-09-02T17:35:12.484Z,96003.81
2022-09-02T17:37:42.582Z,96001.31
2022-09-02T17:40:33.091Z,95994.50
2022-09-02T17:43:00.636Z,96007.91
2022-09-02T17:45:29.063Z,96012.16
2022-09-02T17:48:19.093Z,96015.03
2022-09-02T17:50:50.426Z,96014.88
2022-09-02T17:53:20.237Z,96003.72
2022-09-02T17:55:51.312Z,96008.47
2022-09-02T17:58:22.567Z,96004.34
2022-09-02T18:00:58.345Z,96003.97
2022-09-02T18:03:40.979Z,96007.91
2022-09-02T18:06:16.434Z,96013.38
2022-09-02T18:08:56.280Z,96012.16
2022-09-02T18:11:25.628Z,96011.03
2022-09-02T18:14:08.196Z,96012.53
2022-09-02T18:16:51.344Z,96013.50
2022-09-02T18:19:38.072Z,96010.19
2022-09-02T18:22:19.637Z,96008.47
2022-09-02T18:25:08.433Z,96018.34
2022-09-02T18:27:52.357Z,96026.31
2022-09-02T18:30:23.609Z,96019.69
2022-09-02T18:33:17.893Z,96029.53
2022-09-02T18:35:55.692Z,96028.91
2022-09-02T18:38:32.000Z,96040.13
2022-09-02T18:41:26.132Z,96038.97
2022-09-02T18:44:07.729Z,96044.75
2022-09-02T18:46:46.985Z,96042.69
2022-09-02T18:49:16.565Z,96040.09
2022-09-02T18:51:46.991Z,96036.00
2022-09-02T18:54:19.932Z,96043.41
2022-09-02T18:56:58.124Z,96040.41
2022-09-02T18:59:35.384Z,96043.25
2022-09-02T19:02:15.338Z,96044.88
2022-09-02T19:04:44.064Z,96051.66
2022-09-02T19:07:31.543Z,96047.81
2022-09-02T19:10:02.487Z,96055.31
2022-09-02T19:12:36.198Z,96063.78
2022-09-02T19:15:08.780Z,96060.84
2022-09-02T19:17:37.676Z,96064.31
2022-09-02T19:20:07.469Z,96057.13
2022-09-02T19:22:38.260Z,96062.94
2022-09-02T19:25:11.461Z,96058.31
2022-09-02T19:27:44.849Z,96066.34
2022-09-02T19:30:15.778Z,96063.72
2022-09-02T19:32:47.963Z,96068.69
2022-09-02T19:35:19.465Z,96062.31
2022-09-02T19:37:51.699Z,96066.16
2022-09-02T19:40:23.067Z,96051.69
2022-09-02T19:42:54.157Z,96060.03
2022-09-02T19:45:23.046Z,96056.59
2022-09-02T19:48:08.892Z,96051.97
2022-09-02T19:50:40.872Z,96046.50
2022-09-02T19:53:15.953Z,96041.88
2022-09-02T19:55:44.961Z,96051.69
2022-09-02T19:58:14.895Z,96045.16
2022-09-02T20:00:43.935Z,96046.41
2022-09-02T20:03:13.146Z,96042.53
2022-09-02T20:05:42.350Z,96042.66
2022-09-02T20:08:11.017Z,96045.34
2022-09-02T20:10:40.743Z,96048.16
2022-09-02T20:13:13.632Z,96033.84
2022-09-02T20:15:43.495Z,96052.25
2022-09-02T20:18:14.089Z,96057.41
2022-09-02T20:20:44.106Z,96057.19
2022-09-02T20:23:17.271Z,96067.91
2022-09-02T20:26:03.754Z,96063.59
2022-09-02T20:28:45.662Z,96061.34
2022-09-02T20:31:26.357Z,96054.59
2022-09-02T20:34:05.463Z,96052.44
2022-09-02T20:36:37.407Z,96051.91
2022-09-02T20:39:18.456Z,96043.91
2022-09-02T20:41:56.275Z,96053.88
2022-09-02T20:44:42.500Z,96051.25
2022-09-02T20:47:30.068Z,96052.97
2022-09-02T20:50:10.073Z,96061.13
2022-09-02T20:52:46.888Z,96057.34
2022-09-02T20:55:22.773Z,96065.50
2022-09-02T20:58:19.235Z,96054.91
2022-09-02T21:01:06.706Z,96059.59
2022-09-02T21:03:46.404Z,96054.81
2022-09-02T21:06:15.848Z,96056.84
2022-09-02T21:08:55.296Z,96050.03
2022-09-02T21:11:24.411Z,96055.84
2022-09-02T21:13:58.893Z,96047.94
2022-09-02T21:16:35.846Z,96051.19
2022-09-02T21:19:12.003Z,96050.47
2022-09-02T21:21:46.691Z,96049.47
2022-09-02T21:24:21.451Z,96046.50
2022-09-02T21:26:56.586Z,96044.03
2022-09-02T21:29:32.829Z,96049.63
2022-09-02T21:32:07.337Z,96044.03
2022-09-02T21:34:42.064Z,96035.66
2022-09-02T21:37:11.227Z,96047.38
2022-09-02T21:39:45.141Z,96045.91
2022-09-02T21:42:27.432Z,96050.06
2022-09-02T21:45:06.807Z,96058.50
2022-09-02T21:47:42.096Z,96050.34
2022-09-02T21:50:21.920Z,96045.03
2022-09-02T21:53:04.942Z,96053.66
2022-09-02T21:55:46.150Z,96055.97
2022-09-02T21:58:35.361Z,96052.75
2022-09-02T22:01:09.075Z,96049.41
2022-09-02T22:03:43.329Z,96055.81
2022-09-02T22:06:23.560Z,96054.06
2022-09-02T22:08:58.524Z,96055.91
2022-09-02T22:11:32.627Z,96058.19
2022-09-02T22:14:09.025Z,96049.16
2022-09-02T22:16:45.780Z,96051.34
2022-09-02T22:19:14.756Z,96051.13
2022-09-02T22:21:49.122Z,96051.38
2022-09-02T22:24:18.950Z,96054.16
2022-09-02T22:26:52.804Z,96053.03
2022-09-02T22:29:31.860Z,96056.75
2022-09-02T22:32:04.324Z,96060.09
2022-09-02T22:34:39.132Z,96055.81
2022-09-02T22:37:12.073Z,96063.00
2022-09-02T22:39:48.182Z,96055.88
2022-09-02T22:42:22.460Z,96051.81
2022-09-02T22:45:14.113Z,96048.66
2022-09-02T22:48:06.905Z,96049.81
2022-09-02T22:50:59.003Z,96050.28
2022-09-02T22:53:30.811Z,96055.00
2022-09-02T22:56:02.919Z,96057.50
2022-09-02T22:58:55.427Z,96055.41
2022-09-02T23:01:34.315Z,96050.47
2022-09-02T23:04:19.542Z,96055.16
2022-09-02T23:06:48.743Z,96055.63
2022-09-02T23:09:18.607Z,96045.25
2022-09-02T23:11:55.108Z,96036.44
2022-09-02T23:14:32.432Z,96046.38
2022-09-02T23:17:35.365Z,96040.44
2022-09-02T23:20:14.774Z,96045.56
2022-09-02T23:23:07.342Z,96050.47
2022-09-02T23:25:53.393Z,96053.78
2022-09-02T23:28:32.660Z,96048.00
2022-09-02T23:31:09.375Z,96041.84
2022-09-02T23:33:50.951Z,96040.28
2022-09-02T23:36:32.984Z,96038.28
2022-09-02T23:39:16.175Z,96036.03
2022-09-02T23:41:49.160Z,96044.00
2022-09-02T23:44:17.712Z,96034.38
2022-09-02T23:46:58.319Z,96035.78
2022-09-02T23:49:38.229Z,96035.94
2022-09-02T23:52:11.325Z,96043.97
2022-09-02T23:54:52.745Z,96034.97
2022-09-02T23:57:35.661Z,96032.31
